^^
Station Historical Data
Daily Summary for January 13, 2018 Units:  Metric    English   Both
« Previous Day
Next Day »
Daily Weekly Monthly Yearly Custom
  High: Low: Average:
Temperature: -17.8 °C -6.6 °C -3.2 °C
Dew Point: -17.8 °C -9.8 °C -6.1 °C
Humidity: Humidity% 74% 80%
Wind Speed: 0km/h 0km/h 2.4km/h
Wind Gust: 0km/h - -
Wind- - West
Pressure: 0 hPa 1014.8 hPa -
Precipitation: 0 mm    
Historical Graphs
 
 
Tabular Data for January 13, 2018
Time Temperature Dew Point Pressure Wind Wind Speed Wind Gust Humidity Rainfall Rate (Hourly)
-17.8 °C -17.8 °C 0 hPa Calm     Humidity% 0 mm
00:03 -3.3 °C -5 °C 1015.1 hPa Calm   3.2 km/h 88% 0 mm
00:08 -3.3 °C -5.2 °C 1015.1 hPa Calm   4.8 km/h 87% 0 mm
00:14 -3.2 °C -4.9 °C 1015.5 hPa Calm     88% 0 mm
00:21 -3.2 °C -5.1 °C 1015.5 hPa Calm   6.4 km/h 87% 0 mm
00:32 -3.2 °C -5.1 °C 1015.1 hPa Calm   4.8 km/h 87% 0 mm
00:37 -3.2 °C -4.9 °C 1015.1 hPa Calm   3.2 km/h 88% 0 mm
00:43 -3.2 °C -5.1 °C 1015.1 hPa Calm   14.5 km/h 87% 0 mm
00:53 -3.1 °C -5 °C 1015.1 hPa Calm   1.6 km/h 87% 0 mm
00:59 -3.1 °C -5 °C 1015.5 hPa NW 1.4 km/h 19.3 km/h 87% 0 mm
01:05 -3 °C -4.9 °C 1015.1 hPa Calm   9.7 km/h 87% 0 mm
01:10 -2.9 °C -4.9 °C 1015.1 hPa NW 1.4 km/h 4.8 km/h 86% 0 mm
01:18 -2.8 °C -4.7 °C 1015.1 hPa NE 1.4 km/h 3.2 km/h 87% 0 mm
01:28 -2.8 °C -4.8 °C 1015.1 hPa Calm   19.3 km/h 86% 0 mm
01:36 -2.8 °C -4.8 °C 1014.8 hPa NW 3.2 km/h 4.8 km/h 86% 0 mm
01:42 -2.8 °C -4.8 °C 1015.1 hPa Calm   4.8 km/h 86% 0 mm
01:47 -2.8 °C -4.8 °C 1014.8 hPa West 4.7 km/h 14.5 km/h 86% 0 mm
01:55 -2.8 °C -4.8 °C 1015.1 hPa West 1.4 km/h 1.6 km/h 86% 0 mm
02:01 -2.8 °C -4.8 °C 1015.1 hPa West 3.2 km/h 6.4 km/h 86% 0 mm
02:06 -2.8 °C -4.8 °C 1015.1 hPa Calm   11.3 km/h 86% 0 mm
02:11 -2.7 °C -4.7 °C 1015.1 hPa West 1.4 km/h 9.7 km/h 86% 0 mm
02:19 -2.7 °C -4.7 °C 1015.1 hPa WSW 3.2 km/h 6.4 km/h 86% 0 mm
02:24 -2.6 °C -4.8 °C 1015.1 hPa WNW 3.2 km/h 16.1 km/h 85% 0 mm
02:30 -2.6 °C -4.8 °C 1015.1 hPa Calm   12.9 km/h 85% 0 mm
02:38 -2.7 °C -4.9 °C 1015.5 hPa NNW 1.4 km/h 6.4 km/h 85% 0 mm
02:48 -2.6 °C -4.8 °C 1015.8 hPa WNW 3.2 km/h 16.1 km/h 85% 0 mm
02:53 -2.6 °C -4.8 °C 1015.8 hPa NW 3.2 km/h 14.5 km/h 85% 0 mm
02:58 -2.7 °C -4.9 °C 1016.1 hPa WSW 3.2 km/h 4.8 km/h 85% 0 mm
03:13 -2.6 °C -4.8 °C 1016.5 hPa NNE 3.2 km/h 14.5 km/h 85% 0 mm
03:18 -2.6 °C -4.6 °C 1016.8 hPa Calm   6.4 km/h 86% 0 mm
03:23 -2.6 °C -4.8 °C 1016.8 hPa Calm   19.3 km/h 85% 0 mm
03:34 -2.5 °C -4.5 °C 1016.8 hPa West 1.4 km/h 4.8 km/h 86% 0 mm
03:39 -2.5 °C -4.5 °C 1017.2 hPa Calm   9.7 km/h 86% 0 mm
03:46 -2.5 °C -4.5 °C 1017.2 hPa Calm   4.8 km/h 86% 0 mm
03:55 -2.4 °C -4.4 °C 1017.5 hPa Calm   4.8 km/h 86% 0 mm
04:01 -2.4 °C -4.3 °C 1017.5 hPa Calm   1.6 km/h 87% 0 mm
04:08 -2.5 °C -4.5 °C 1017.8 hPa Calm   9.7 km/h 86% 0 mm
04:14 -2.4 °C -4.3 °C 1017.8 hPa Calm   3.2 km/h 87% 0 mm
04:19 -2.4 °C -4.4 °C 1017.8 hPa Calm   8 km/h 86% 0 mm
04:29 -2.5 °C -4.5 °C 1018.2 hPa WNW 1.4 km/h 8 km/h 86% 0 mm
04:34 -2.4 °C -4.4 °C 1018.5 hPa NNE 1.4 km/h 9.7 km/h 86% 0 mm
04:45 -2.4 °C -4.4 °C 1018.5 hPa Calm   9.7 km/h 86% 0 mm
04:50 -2.4 °C -4.4 °C 1018.8 hPa North 4.7 km/h 16.1 km/h 86% 0 mm
05:04 -2.4 °C -4.6 °C 1019.2 hPa Calm   4.8 km/h 85% 0 mm
05:14 -2.4 °C -4.7 °C 1019.2 hPa NE 1.4 km/h 1.6 km/h 84% 0 mm
05:26 -2.4 °C -4.7 °C 1019.5 hPa NNW 7.9 km/h 9.7 km/h 84% 0 mm
05:34 -2.3 °C -4.5 °C 1019.5 hPa WNW 6.4 km/h 9.7 km/h 85% 0 mm
05:45 -2.4 °C -4.7 °C 1019.5 hPa Calm   6.4 km/h 84% 0 mm
05:55 -2.5 °C -4.8 °C 1019.9 hPa Calm   4.8 km/h 84% 0 mm
06:00 -2.5 °C -4.7 °C 1019.9 hPa Calm   11.3 km/h 85% 0 mm
06:15 -2.6 °C -4.9 °C 1020.5 hPa NW 7.9 km/h 8 km/h 84% 0 mm
06:21 -2.6 °C -4.9 °C 1020.5 hPa WNW 7.9 km/h 8 km/h 84% 0 mm
06:29 -2.6 °C -5.1 °C 1020.5 hPa WNW 1.4 km/h 6.4 km/h 83% 0 mm
06:43 -2.6 °C -4.9 °C 1021.2 hPa Calm   6.4 km/h 84% 0 mm
06:55 -2.6 °C -4.9 °C 1021.2 hPa Calm   8 km/h 84% 0 mm
07:00 -2.6 °C -4.9 °C 1021.2 hPa NNW 4.7 km/h 12.9 km/h 84% 0 mm
07:08 -2.7 °C -4.9 °C 1021.6 hPa Calm   6.4 km/h 85% 0 mm
07:18 -2.7 °C -4.9 °C 1021.9 hPa Calm   3.2 km/h 85% 0 mm
07:23 -2.7 °C -4.9 °C 1021.9 hPa NNW 13 km/h 13 km/h 85% 0 mm
07:28 -2.7 °C -4.9 °C 1022.2 hPa Calm   3.2 km/h 85% 0 mm
07:33 -2.7 °C -4.9 °C 1022.2 hPa WNW 1.4 km/h 6.4 km/h 85% 0 mm
07:45 -2.7 °C -4.9 °C 1022.6 hPa WNW 4.7 km/h 6.4 km/h 85% 0 mm
07:56 -2.8 °C -5 °C 1022.9 hPa WNW 3.2 km/h 14.5 km/h 85% 0 mm
08:03 -2.8 °C -5.1 °C 1023.2 hPa Calm   4.8 km/h 84% 0 mm
08:08 -2.8 °C -5.1 °C 1023.2 hPa SW 13 km/h 16.1 km/h 84% 0 mm
08:16 -2.8 °C -5.4 °C 1023.6 hPa WNW 1.4 km/h 14.5 km/h 82% 0 mm
08:28 -2.8 °C -5.6 °C 1023.9 hPa West 6.4 km/h 6.4 km/h 81% 0 mm
08:34 -2.8 °C -5.6 °C 1023.9 hPa NNE 4.7 km/h 12.9 km/h 81% 0 mm
08:39 -2.8 °C -5.6 °C 1024.3 hPa Calm   3.2 km/h 81% 0 mm
08:48 -2.8 °C -5.6 °C 1024.3 hPa NW 3.2 km/h 3.2 km/h 81% 0 mm
08:53 -2.8 °C -5.6 °C 1024.3 hPa WSW 4.7 km/h 4.8 km/h 81% 0 mm
09:03 -2.9 °C -5.7 °C 1024.6 hPa Calm   6.4 km/h 81% 0 mm
09:12 -2.8 °C -5.6 °C 1024.6 hPa NNE 1.4 km/h 1.6 km/h 81% 0 mm
09:17 -2.8 °C -5.4 °C 1024.9 hPa Calm   1.6 km/h 82% 0 mm
09:24 -2.8 °C -5.6 °C 1024.9 hPa Calm   9.7 km/h 81% 0 mm
09:29 -2.8 °C -5.6 °C 1024.9 hPa Calm   4.8 km/h 81% 0 mm
09:44 -2.9 °C -5.7 °C 1025.3 hPa NW 3.2 km/h 14.5 km/h 81% 0 mm
09:49 -2.9 °C -5.7 °C 1025.6 hPa West 13 km/h 13 km/h 81% 0 mm
09:57 -2.8 °C -5.4 °C 1025.6 hPa NW 4.7 km/h 8 km/h 82% 0 mm
10:03 -2.8 °C -5.6 °C 1026 hPa North 3.2 km/h 9.7 km/h 81% 0 mm
10:09 -2.8 °C -5.6 °C 1026.3 hPa NNW 3.2 km/h 9.7 km/h 81% 0 mm
10:14 -2.8 °C -5.6 °C 1026.3 hPa Calm   9.7 km/h 81% 0 mm
10:21 -2.8 °C -5.6 °C 1026.6 hPa Calm   8 km/h 81% 0 mm
10:31 -2.7 °C -5.3 °C 1026.6 hPa West 3.2 km/h 6.4 km/h 82% 0 mm
10:40 -2.7 °C -5.3 °C 1026.6 hPa Calm     82% 0 mm
10:45 -2.6 °C -5.2 °C 1026.6 hPa WNW 1.4 km/h 3.2 km/h 82% 0 mm
10:50 -2.6 °C -5.2 °C 1026.6 hPa Calm   14.5 km/h 82% 0 mm
10:57 -2.4 °C -5.1 °C 1026.6 hPa Calm   11.3 km/h 82% 0 mm
11:02 -2.4 °C -5.2 °C 1026.6 hPa WNW 3.2 km/h 17.7 km/h 81% 0 mm
11:07 -2.5 °C -5.1 °C 1027 hPa NW 3.2 km/h 12.9 km/h 82% 0 mm
11:15 -2.5 °C -5.1 °C 1027 hPa NW 1.4 km/h 20.9 km/h 82% 0 mm
11:23 -2.6 °C -5.2 °C 1027.3 hPa WNW 6.4 km/h 12.9 km/h 82% 0 mm
11:31 -2.7 °C -5.3 °C 1027.3 hPa Calm   3.2 km/h 82% 0 mm
11:36 -2.7 °C -5.2 °C 1027.3 hPa NW 4.7 km/h 8 km/h 83% 0 mm
11:43 -2.7 °C -5.3 °C 1027.7 hPa NNE 6.4 km/h 14.5 km/h 82% 0 mm
11:54 -2.5 °C -5.1 °C 1027.7 hPa NW 1.4 km/h 17.7 km/h 82% 0 mm
11:59 -2.4 °C -5.1 °C 1027.7 hPa NW 3.2 km/h 12.9 km/h 82% 0 mm
12:09 -2.3 °C -5.3 °C 1028 hPa ENE 1.4 km/h 16.1 km/h 80% 0 mm
12:18 -2.2 °C -5 °C 1027.7 hPa NW 3.2 km/h 16.1 km/h 81% 0 mm
12:27 -2.2 °C -5.2 °C 1028 hPa NW 4.7 km/h 12.9 km/h 80% 0 mm
12:32 -2.1 °C -4.9 °C 1028 hPa Calm   6.4 km/h 81% 0 mm
12:37 -2 °C -5.2 °C 1028 hPa North 3.2 km/h 17.7 km/h 79% 0 mm
12:48 -1.9 °C -4.9 °C 1028 hPa Calm   8 km/h 80% 0 mm
12:57 -1.9 °C -5.1 °C 1028 hPa WNW 4.7 km/h 9.7 km/h 79% 0 mm
13:05 -1.9 °C -5.2 °C 1028 hPa Calm   14.5 km/h 78% 0 mm
13:10 -1.9 °C -5.2 °C 1028 hPa Calm   12.9 km/h 78% 0 mm
13:19 -1.8 °C -5.1 °C 1028 hPa Calm   4.8 km/h 78% 0 mm
13:26 -1.8 °C -5.3 °C 1028 hPa WNW 1.4 km/h 8 km/h 77% 0 mm
13:33 -1.8 °C -5.3 °C 1028 hPa Calm   1.6 km/h 77% 0 mm
13:38 -1.7 °C -5.2 °C 1028 hPa Calm   8 km/h 77% 0 mm
13:43 -1.7 °C -5.2 °C 1028.3 hPa Calm   1.6 km/h 77% 0 mm
13:52 -1.5 °C -5 °C 1028.3 hPa NNW 1.4 km/h 4.8 km/h 77% 0 mm
14:06 -1.8 °C -5.3 °C 1028.3 hPa NW 1.4 km/h 12.9 km/h 77% 0 mm
14:15 -1.7 °C -5.4 °C 1028.3 hPa Calm   11.3 km/h 76% 0 mm
14:20 -1.7 °C -5.4 °C 1028.3 hPa North 4.7 km/h 9.7 km/h 76% 0 mm
14:25 -1.8 °C -5.3 °C 1028.3 hPa NW 4.7 km/h 11.3 km/h 77% 0 mm
14:31 -1.9 °C -5.6 °C 1028.7 hPa Calm   9.7 km/h 76% 0 mm
14:36 -1.9 °C -5.6 °C 1028.7 hPa Calm   6.4 km/h 76% 0 mm
14:53 -1.6 °C -5.3 °C 1028.7 hPa NW 1.4 km/h 6.4 km/h 76% 0 mm
14:58 -1.5 °C -5.2 °C 1028.3 hPa Calm   3.2 km/h 76% 0 mm
15:04 -1.4 °C -5.3 °C 1028.7 hPa WNW 6.4 km/h 8 km/h 75% 0 mm
15:09 -1.4 °C -5.3 °C 1028.7 hPa WNW 7.9 km/h 11.3 km/h 75% 0 mm
15:14 -1.4 °C -5.3 °C 1028.7 hPa Calm   1.6 km/h 75% 0 mm
15:23 -1.4 °C -5.4 °C 1029 hPa SE 6.4 km/h 16.1 km/h 74% 0 mm
15:31 -1.2 °C -5.1 °C 1029 hPa Calm     75% 0 mm
15:44 -1.5 °C -5.5 °C 1029.3 hPa NW 9.7 km/h 9.7 km/h 74% 0 mm
15:49 -1.7 °C -5.7 °C 1029.3 hPa Calm   6.4 km/h 74% 0 mm
15:58 -1.7 °C -5.5 °C 1029.3 hPa NW 3.2 km/h 16.1 km/h 75% 0 mm
16:04 -1.8 °C -5.6 °C 1029.3 hPa NW 6.4 km/h 12.9 km/h 75% 0 mm
16:09 -1.9 °C -5.7 °C 1029.7 hPa Calm   11.3 km/h 75% 0 mm
16:14 -2.2 °C -6 °C 1029.7 hPa NNW 4.7 km/h 12.9 km/h 75% 0 mm
16:30 -2.5 °C -6.3 °C 1030 hPa Calm   6.4 km/h 75% 0 mm
16:35 -2.6 °C -6.4 °C 1030 hPa NW 1.4 km/h 4.8 km/h 75% 0 mm
16:55 -2.6 °C -6.6 °C 1030.4 hPa NNW 1.4 km/h 12.9 km/h 74% 0 mm
17:03 -2.7 °C -6.7 °C 1030.4 hPa Calm   1.6 km/h 74% 0 mm
17:13 -2.8 °C -6.8 °C 1030.4 hPa Calm   6.4 km/h 74% 0 mm
17:18 -2.9 °C -6.9 °C 1030.4 hPa Calm   12.9 km/h 74% 0 mm
17:24 -3 °C -7 °C 1030.7 hPa NW 7.9 km/h 8 km/h 74% 0 mm
17:29 -3.1 °C -7.1 °C 1030.7 hPa WSW 9.7 km/h 11.3 km/h 74% 0 mm
17:38 -3.2 °C -7.2 °C 1030.7 hPa WNW 4.7 km/h 4.8 km/h 74% 0 mm
17:44 -3.3 °C -7.1 °C 1030.7 hPa Calm   11.3 km/h 75% 0 mm
17:49 -3.3 °C -6.9 °C 1030.7 hPa Calm   9.7 km/h 76% 0 mm
17:54 -3.4 °C -7 °C 1030.7 hPa NW 1.4 km/h 6.4 km/h 76% 0 mm
17:59 -3.5 °C -7.1 °C 1031 hPa West 3.2 km/h 8 km/h 76% 0 mm
18:04 -3.6 °C -7.2 °C 1031 hPa Calm   8 km/h 76% 0 mm
18:12 -3.7 °C -7.3 °C 1031 hPa West 6.4 km/h 8 km/h 76% 0 mm
18:21 -3.8 °C -7.4 °C 1031 hPa WNW 6.4 km/h 9.7 km/h 76% 0 mm
18:26 -3.8 °C -7.4 °C 1031 hPa NW 1.4 km/h 6.4 km/h 76% 0 mm
18:35 -3.9 °C -7.3 °C 1031.4 hPa Calm   8 km/h 77% 0 mm
18:44 -4.1 °C -7.5 °C 1031.7 hPa NW 4.7 km/h 9.7 km/h 77% 0 mm
18:53 -4.1 °C -7.5 °C 1031.7 hPa NW 6.4 km/h 19.3 km/h 77% 0 mm
19:00 -4.2 °C -7.8 °C 1031.7 hPa Calm   20.9 km/h 76% 0 mm
19:07 -4.2 °C -7.6 °C 1032.1 hPa WNW 13 km/h 16.1 km/h 77% 0 mm
19:16 -4.2 °C -7.6 °C 1032.1 hPa WNW 6.4 km/h 8 km/h 77% 0 mm
19:26 -4.3 °C -7.7 °C 1032.1 hPa WSW 3.2 km/h 14.5 km/h 77% 0 mm
19:36 -4.3 °C -7.7 °C 1032.4 hPa ENE 1.4 km/h 8 km/h 77% 0 mm
19:41 -4.3 °C -7.7 °C 1032.4 hPa West 1.4 km/h 11.3 km/h 77% 0 mm
19:46 -4.4 °C -7.8 °C 1032.4 hPa NNW 1.4 km/h 19.3 km/h 77% 0 mm
19:51 -4.4 °C -7.7 °C 1032.4 hPa Calm   8 km/h 78% 0 mm
20:02 -4.5 °C -7.8 °C 1032.7 hPa Calm   6.4 km/h 78% 0 mm
20:07 -4.6 °C -7.8 °C 1032.7 hPa NNW 4.7 km/h 12.9 km/h 78% 0 mm
20:12 -4.6 °C -7.8 °C 1032.7 hPa NW 4.7 km/h 17.7 km/h 78% 0 mm
20:17 -4.7 °C -7.9 °C 1032.7 hPa North 17.7 km/h 17.7 km/h 78% 0 mm
20:22 -4.7 °C -7.9 °C 1032.7 hPa NE 1.4 km/h 11.3 km/h 78% 0 mm
20:27 -4.7 °C -7.9 °C 1032.7 hPa West 6.4 km/h 22.5 km/h 78% 0 mm
20:32 -4.8 °C -8 °C 1033.1 hPa North 1.4 km/h 16.1 km/h 78% 0 mm
20:37 -4.8 °C -8 °C 1033.1 hPa North 3.2 km/h 11.3 km/h 78% 0 mm
20:47 -4.9 °C -8.1 °C 1033.1 hPa Calm   16.1 km/h 78% 0 mm
21:01 -5 °C -8.2 °C 1033.1 hPa Calm   12.9 km/h 78% 0 mm
21:06 -5.1 °C -8.3 °C 1033.1 hPa NNW 4.7 km/h 9.7 km/h 78% 0 mm
21:14 -5.2 °C -8.4 °C 1033.1 hPa Calm   1.6 km/h 78% 0 mm
21:34 -5.3 °C -8.4 °C 1033.4 hPa Calm   8 km/h 79% 0 mm
21:44 -5.4 °C -8.5 °C 1033.4 hPa Calm   8 km/h 79% 0 mm
21:49 -5.4 °C -8.5 °C 1033.4 hPa NNW 4.7 km/h 19.3 km/h 79% 0 mm
22:00 -5.5 °C -8.6 °C 1033.7 hPa NE 6.4 km/h 20.9 km/h 79% 0 mm
22:05 -5.6 °C -8.7 °C 1033.7 hPa Calm   8 km/h 79% 0 mm
22:18 -5.7 °C -8.6 °C 1033.7 hPa North 1.4 km/h 16.1 km/h 80% 0 mm
22:27 -5.7 °C -8.6 °C 1033.7 hPa Calm   8 km/h 80% 0 mm
22:41 -5.8 °C -8.7 °C 1034.1 hPa WNW 1.4 km/h 4.8 km/h 80% 0 mm
22:46 -5.9 °C -8.8 °C 1034.1 hPa Calm   3.2 km/h 80% 0 mm
22:51 -5.9 °C -8.8 °C 1034.1 hPa WNW 11.1 km/h 16.1 km/h 80% 0 mm
23:03 -6.1 °C -9.1 °C 1034.4 hPa Calm   6.4 km/h 79% 0 mm
23:08 -6.1 °C -9.1 °C 1034.4 hPa Calm   3.2 km/h 79% 0 mm
23:15 -6.2 °C -9.4 °C 1034.4 hPa NE 4.7 km/h 4.8 km/h 78% 0 mm
23:27 -6.3 °C -9.5 °C 1034.4 hPa Calm   14.5 km/h 78% 0 mm
23:36 -6.4 °C -9.6 °C 1034.4 hPa NW 3.2 km/h 11.3 km/h 78% 0 mm
23:42 -6.5 °C -9.5 °C 1034.4 hPa Calm     79% 0 mm
23:48 -6.5 °C -9.7 °C 1034.4 hPa Calm   1.6 km/h 78% 0 mm
23:53 -6.6 °C -9.8 °C 1034.4 hPa Calm   3.2 km/h 78% 0 mm
23:59 -6.6 °C -9.8 °C 1034.4 hPa West 6.4 km/h 16.1 km/h 78% 0 mm
Ellijay Weather
Compliments of Weather Underground - 2 mb